sensor_id;sensor_type;location;lat;lon;timestamp;pressure;altitude;pressure_sealevel;temperature;humidity
41690;BME280;27372;42.658;23.256;2024-03-23T00:53:15;93821.91;;;4.93;57.69
41690;BME280;27372;42.658;23.256;2024-03-23T00:55:41;93820.91;;;5.01;57.36
41690;BME280;27372;42.658;23.256;2024-03-23T00:58:07;93823.13;;;4.90;58.44
41690;BME280;27372;42.658;23.256;2024-03-23T01:00:32;93815.34;;;4.08;62.38
41690;BME280;27372;42.658;23.256;2024-03-23T01:02:58;93818.56;;;4.17;61.39
41690;BME280;27372;42.658;23.256;2024-03-23T01:05:23;93813.72;;;3.58;62.89
41690;BME280;27372;42.658;23.256;2024-03-23T01:07:48;93807.69;;;3.51;63.29
41690;BME280;27372;42.658;23.256;2024-03-23T01:10:14;93816.50;;;3.99;61.36
41690;BME280;27372;42.658;23.256;2024-03-23T01:12:39;93810.56;;;4.18;57.94
41690;BME280;27372;42.658;23.256;2024-03-23T01:15:05;93807.22;;;4.38;57.00
41690;BME280;27372;42.658;23.256;2024-03-23T01:17:30;93803.25;;;4.42;54.32
41690;BME280;27372;42.658;23.256;2024-03-23T01:19:55;93796.25;;;4.49;55.32
41690;BME280;27372;42.658;23.256;2024-03-23T01:22:21;93798.66;;;4.44;55.40
41690;BME280;27372;42.658;23.256;2024-03-23T01:24:46;93814.63;;;4.41;56.01
41690;BME280;27372;42.658;23.256;2024-03-23T01:27:12;93791.81;;;4.37;55.93
41690;BME280;27372;42.658;23.256;2024-03-23T01:29:37;93812.66;;;4.50;56.31
41690;BME280;27372;42.658;23.256;2024-03-23T01:32:04;93798.69;;;4.58;57.03
41690;BME280;27372;42.658;23.256;2024-03-23T01:34:29;93813.47;;;4.64;57.32
41690;BME280;27372;42.658;23.256;2024-03-23T01:36:55;93819.47;;;4.71;56.74
41690;BME280;27372;42.658;23.256;2024-03-23T01:39:20;93801.88;;;4.80;56.25
41690;BME280;27372;42.658;23.256;2024-03-23T01:41:45;93809.88;;;4.78;54.87
41690;BME280;27372;42.658;23.256;2024-03-23T01:44:11;93809.28;;;4.90;54.16
41690;BME280;27372;42.658;23.256;2024-03-23T01:46:39;93806.06;;;4.94;54.96
41690;BME280;27372;42.658;23.256;2024-03-23T01:49:07;93803.91;;;4.85;54.65
41690;BME280;27372;42.658;23.256;2024-03-23T01:51:33;93795.28;;;4.91;54.69
41690;BME280;27372;42.658;23.256;2024-03-23T01:53:59;93811.69;;;5.05;54.81
41690;BME280;27372;42.658;23.256;2024-03-23T01:56:32;93794.69;;;5.02;55.36
41690;BME280;27372;42.658;23.256;2024-03-23T01:59:00;93805.69;;;5.04;54.83
41690;BME280;27372;42.658;23.256;2024-03-23T02:01:25;93802.09;;;5.05;54.76
41690;BME280;27372;42.658;23.256;2024-03-23T02:03:56;93803.28;;;5.09;54.71
41690;BME280;27372;42.658;23.256;2024-03-23T02:06:24;93799.28;;;5.13;54.61
41690;BME280;27372;42.658;23.256;2024-03-23T02:08:49;93805.09;;;5.16;55.01
41690;BME280;27372;42.658;23.256;2024-03-23T02:11:15;93814.69;;;5.15;55.27
41690;BME280;27372;42.658;23.256;2024-03-23T02:13:40;93810.28;;;5.16;55.97
41690;BME280;27372;42.658;23.256;2024-03-23T02:16:06;93810.91;;;5.11;56.01
41690;BME280;27372;42.658;23.256;2024-03-23T02:18:32;93810.28;;;4.62;57.00
41690;BME280;27372;42.658;23.256;2024-03-23T02:20:57;93811.50;;;4.66;57.03
41690;BME280;27372;42.658;23.256;2024-03-23T02:23:23;93817.09;;;4.70;57.38
41690;BME280;27372;42.658;23.256;2024-03-23T02:25:49;93811.06;;;4.69;57.83
41690;BME280;27372;42.658;23.256;2024-03-23T02:28:15;93812.66;;;4.43;58.20
41690;BME280;27372;42.658;23.256;2024-03-23T02:30:40;93809.81;;;4.38;58.52
41690;BME280;27372;42.658;23.256;2024-03-23T02:33:06;93811.00;;;4.29;58.79
41690;BME280;27372;42.658;23.256;2024-03-23T02:35:31;93809.84;;;4.51;58.37
41690;BME280;27372;42.658;23.256;2024-03-23T02:37:56;93806.25;;;4.46;58.68
41690;BME280;27372;42.658;23.256;2024-03-23T02:40:23;93805.88;;;4.69;58.34
41690;BME280;27372;42.658;23.256;2024-03-23T02:42:48;93808.09;;;4.79;58.52
41690;BME280;27372;42.658;23.256;2024-03-23T02:45:14;93799.06;;;4.75;58.66
41690;BME280;27372;42.658;23.256;2024-03-23T02:47:39;93803.28;;;4.76;58.94
41690;BME280;27372;42.658;23.256;2024-03-23T02:50:05;93795.47;;;4.56;59.53
41690;BME280;27372;42.658;23.256;2024-03-23T02:52:30;93797.88;;;4.64;59.07
41690;BME280;27372;42.658;23.256;2024-03-23T02:54:56;93797.66;;;4.72;59.06
41690;BME280;27372;42.658;23.256;2024-03-23T02:57:22;93799.06;;;4.61;59.34
41690;BME280;27372;42.658;23.256;2024-03-23T02:59:47;93802.28;;;4.57;60.12
41690;BME280;27372;42.658;23.256;2024-03-23T03:02:13;93801.25;;;4.44;60.48
41690;BME280;27372;42.658;23.256;2024-03-23T03:04:39;93804.19;;;4.28;60.82
41690;BME280;27372;42.658;23.256;2024-03-23T03:07:04;93801.22;;;4.31;61.43
41690;BME280;27372;42.658;23.256;2024-03-23T03:09:30;93803.59;;;4.26;61.88
41690;BME280;27372;42.658;23.256;2024-03-23T03:11:55;93795.97;;;4.17;62.28
41690;BME280;27372;42.658;23.256;2024-03-23T03:14:20;93798.25;;;4.47;61.14
41690;BME280;27372;42.658;23.256;2024-03-23T03:16:46;93805.03;;;4.42;61.77
41690;BME280;27372;42.658;23.256;2024-03-23T03:19:11;93799.66;;;4.50;61.50
41690;BME280;27372;42.658;23.256;2024-03-23T03:21:37;93804.25;;;4.48;61.43
41690;BME280;27372;42.658;23.256;2024-03-23T03:24:02;93808.66;;;4.41;62.10
41690;BME280;27372;42.658;23.256;2024-03-23T03:26:27;93796.63;;;4.33;62.73
41690;BME280;27372;42.658;23.256;2024-03-23T03:28:53;93800.13;;;3.98;64.34
41690;BME280;27372;42.658;23.256;2024-03-23T03:31:18;93795.75;;;4.12;64.98
41690;BME280;27372;42.658;23.256;2024-03-23T03:33:44;93801.25;;;3.82;66.06
41690;BME280;27372;42.658;23.256;2024-03-23T03:36:10;93806.75;;;4.08;65.99
41690;BME280;27372;42.658;23.256;2024-03-23T03:38:35;93802.91;;;4.03;66.43
41690;BME280;27372;42.658;23.256;2024-03-23T03:41:01;93803.59;;;4.19;65.41
41690;BME280;27372;42.658;23.256;2024-03-23T03:43:27;93795.41;;;4.29;64.92
41690;BME280;27372;42.658;23.256;2024-03-23T03:45:57;93800.41;;;4.24;64.90
41690;BME280;27372;42.658;23.256;2024-03-23T03:48:23;93801.09;;;3.91;65.62
41690;BME280;27372;42.658;23.256;2024-03-23T03:50:49;93801.56;;;4.14;65.39
41690;BME280;27372;42.658;23.256;2024-03-23T03:53:14;93801.31;;;4.02;65.99
41690;BME280;27372;42.658;23.256;2024-03-23T03:55:40;93808.16;;;4.10;66.02
41690;BME280;27372;42.658;23.256;2024-03-23T03:58:05;93803.63;;;3.77;65.44
41690;BME280;27372;42.658;23.256;2024-03-23T04:00:31;93809.28;;;3.94;65.69
41690;BME280;27372;42.658;23.256;2024-03-23T04:02:56;93809.75;;;4.11;65.60
41690;BME280;27372;42.658;23.256;2024-03-23T04:05:22;93805.34;;;4.05;63.94
41690;BME280;27372;42.658;23.256;2024-03-23T04:07:48;93804.88;;;3.88;63.36
41690;BME280;27372;42.658;23.256;2024-03-23T04:10:13;93799.28;;;3.84;64.33
41690;BME280;27372;42.658;23.256;2024-03-23T04:12:40;93802.50;;;4.00;64.63
41690;BME280;27372;42.658;23.256;2024-03-23T04:15:05;93811.31;;;3.99;64.83
41690;BME280;27372;42.658;23.256;2024-03-23T04:17:31;93817.25;;;3.86;64.59
41690;BME280;27372;42.658;23.256;2024-03-23T04:19:58;93804.66;;;3.89;65.04
41690;BME280;27372;42.658;23.256;2024-03-23T04:22:24;93808.69;;;3.99;64.60
41690;BME280;27372;42.658;23.256;2024-03-23T04:24:56;93813.25;;;3.83;64.68
41690;BME280;27372;42.658;23.256;2024-03-23T04:27:22;93820.44;;;3.81;64.59
41690;BME280;27372;42.658;23.256;2024-03-23T04:29:51;93805.78;;;3.32;65.04
41690;BME280;27372;42.658;23.256;2024-03-23T04:32:18;93822.34;;;3.02;66.26
41690;BME280;27372;42.658;23.256;2024-03-23T04:34:44;93823.31;;;2.51;68.69
41690;BME280;27372;42.658;23.256;2024-03-23T04:37:10;93820.31;;;2.69;68.89
41690;BME280;27372;42.658;23.256;2024-03-23T04:39:36;93821.50;;;2.95;68.05
41690;BME280;27372;42.658;23.256;2024-03-23T04:42:02;93830.25;;;3.16;66.99
41690;BME280;27372;42.658;23.256;2024-03-23T04:44:28;93817.06;;;3.17;67.11
41690;BME280;27372;42.658;23.256;2024-03-23T04:46:54;93813.25;;;3.48;65.53
41690;BME280;27372;42.658;23.256;2024-03-23T04:49:20;93821.38;;;3.32;64.46
41690;BME280;27372;42.658;23.256;2024-03-23T04:51:45;93816.31;;;3.58;63.78
41690;BME280;27372;42.658;23.256;2024-03-23T04:54:14;93821.81;;;3.77;64.39
41690;BME280;27372;42.658;23.256;2024-03-23T04:56:40;93822.25;;;3.87;64.47
41690;BME280;27372;42.658;23.256;2024-03-23T04:59:05;93826.09;;;3.98;64.43
41690;BME280;27372;42.658;23.256;2024-03-23T05:01:31;93827.13;;;4.04;64.97
41690;BME280;27372;42.658;23.256;2024-03-23T05:03:57;93837.97;;;4.14;63.94
41690;BME280;27372;42.658;23.256;2024-03-23T05:06:23;93828.91;;;4.03;64.10
41690;BME280;27372;42.658;23.256;2024-03-23T05:08:49;93820.78;;;3.71;64.97
41690;BME280;27372;42.658;23.256;2024-03-23T05:11:14;93823.34;;;3.30;66.14
41690;BME280;27372;42.658;23.256;2024-03-23T05:13:41;93816.50;;;2.93;69.42
41690;BME280;27372;42.658;23.256;2024-03-23T05:16:06;93820.75;;;3.01;69.36
41690;BME280;27372;42.658;23.256;2024-03-23T05:18:31;93816.28;;;3.17;69.86
41690;BME280;27372;42.658;23.256;2024-03-23T05:20:57;93815.84;;;3.48;69.76
41690;BME280;27372;42.658;23.256;2024-03-23T05:23:24;93810.72;;;3.55;70.24
41690;BME280;27372;42.658;23.256;2024-03-23T05:25:49;93813.31;;;3.55;70.40
41690;BME280;27372;42.658;23.256;2024-03-23T05:28:15;93819.69;;;3.94;69.20
41690;BME280;27372;42.658;23.256;2024-03-23T05:30:40;93815.78;;;4.12;69.20
41690;BME280;27372;42.658;23.256;2024-03-23T05:33:06;93807.22;;;4.45;68.08
41690;BME280;27372;42.658;23.256;2024-03-23T05:35:31;93817.47;;;4.60;67.98
41690;BME280;27372;42.658;23.256;2024-03-23T05:37:57;93817.91;;;4.77;67.87
41690;BME280;27372;42.658;23.256;2024-03-23T05:40:24;93807.91;;;4.94;67.19
41690;BME280;27372;42.658;23.256;2024-03-23T05:42:49;93818.09;;;5.16;66.57
41690;BME280;27372;42.658;23.256;2024-03-23T05:45:18;93815.47;;;5.36;65.85
41690;BME280;27372;42.658;23.256;2024-03-23T05:47:44;93820.72;;;5.29;65.55
41690;BME280;27372;42.658;23.256;2024-03-23T05:50:10;93818.28;;;5.34;66.26
41690;BME280;27372;42.658;23.256;2024-03-23T05:52:38;93825.72;;;5.37;66.87
41690;BME280;27372;42.658;23.256;2024-03-23T05:55:04;93831.88;;;5.63;66.02
41690;BME280;27372;42.658;23.256;2024-03-23T05:57:30;93828.47;;;5.69;65.91
41690;BME280;27372;42.658;23.256;2024-03-23T05:59:55;93823.78;;;5.91;65.26
41690;BME280;27372;42.658;23.256;2024-03-23T06:02:20;93806.09;;;6.00;64.68
41690;BME280;27372;42.658;23.256;2024-03-23T06:04:46;93827.28;;;6.24;64.22
41690;BME280;27372;42.658;23.256;2024-03-23T06:07:11;93824.00;;;6.42;63.19
41690;BME280;27372;42.658;23.256;2024-03-23T06:09:40;93817.06;;;6.61;62.68
41690;BME280;27372;42.658;23.256;2024-03-23T06:12:05;93822.88;;;6.57;62.76
41690;BME280;27372;42.658;23.256;2024-03-23T06:14:31;93822.78;;;6.77;62.57
41690;BME280;27372;42.658;23.256;2024-03-23T06:16:58;93811.13;;;6.79;61.63
41690;BME280;27372;42.658;23.256;2024-03-23T06:19:23;93815.91;;;6.82;61.67
41690;BME280;27372;42.658;23.256;2024-03-23T06:21:49;93809.56;;;6.72;62.18
41690;BME280;27372;42.658;23.256;2024-03-23T06:24:14;93810.47;;;6.84;61.87
41690;BME280;27372;42.658;23.256;2024-03-23T06:26:39;93814.38;;;7.00;61.39
41690;BME280;27372;42.658;23.256;2024-03-23T06:29:05;93818.53;;;7.08;60.74
41690;BME280;27372;42.658;23.256;2024-03-23T06:31:31;93808.53;;;7.05;61.03
41690;BME280;27372;42.658;23.256;2024-03-23T06:33:56;93818.00;;;6.99;61.32
41690;BME280;27372;42.658;23.256;2024-03-23T06:36:21;93819.22;;;6.96;61.33
41690;BME280;27372;42.658;23.256;2024-03-23T06:38:47;93811.44;;;7.15;61.02
41690;BME280;27372;42.658;23.256;2024-03-23T06:41:21;93809.75;;;7.27;61.40
41690;BME280;27372;42.658;23.256;2024-03-23T06:43:47;93818.31;;;7.35;60.39
41690;BME280;27372;42.658;23.256;2024-03-23T06:46:12;93812.22;;;7.22;60.72
41690;BME280;27372;42.658;23.256;2024-03-23T06:48:37;93814.22;;;7.45;60.47
41690;BME280;27372;42.658;23.256;2024-03-23T06:51:03;93810.63;;;7.21;61.90
41690;BME280;27372;42.658;23.256;2024-03-23T06:53:29;93820.25;;;7.65;60.63
41690;BME280;27372;42.658;23.256;2024-03-23T06:55:54;93808.78;;;7.66;59.81
41690;BME280;27372;42.658;23.256;2024-03-23T06:58:21;93817.44;;;7.85;58.78
41690;BME280;27372;42.658;23.256;2024-03-23T07:00:47;93808.28;;;7.94;59.74
41690;BME280;27372;42.658;23.256;2024-03-23T07:03:12;93809.94;;;8.07;58.95
41690;BME280;27372;42.658;23.256;2024-03-23T07:05:37;93813.28;;;8.14;57.85
41690;BME280;27372;42.658;23.256;2024-03-23T07:08:03;93804.50;;;8.08;57.49
41690;BME280;27372;42.658;23.256;2024-03-23T07:10:29;93800.94;;;8.21;57.58
41690;BME280;27372;42.658;23.256;2024-03-23T07:12:54;93805.19;;;8.34;56.37
41690;BME280;27372;42.658;23.256;2024-03-23T07:15:49;93800.97;;;8.33;57.48
41690;BME280;27372;42.658;23.256;2024-03-23T07:18:36;93799.72;;;8.54;56.70
41690;BME280;27372;42.658;23.256;2024-03-23T07:21:36;93803.22;;;8.79;56.33
41690;BME280;27372;42.658;23.256;2024-03-23T07:24:13;93788.78;;;8.88;54.98
41690;BME280;27372;42.658;23.256;2024-03-23T07:26:39;93790.81;;;8.86;55.02
41690;BME280;27372;42.658;23.256;2024-03-23T07:29:06;93782.75;;;8.99;54.76
41690;BME280;27372;42.658;23.256;2024-03-23T07:31:31;93789.03;;;9.46;52.47
41690;BME280;27372;42.658;23.256;2024-03-23T07:33:57;93785.16;;;9.48;51.85
41690;BME280;27372;42.658;23.256;2024-03-23T07:36:22;93784.44;;;9.89;52.17
41690;BME280;27372;42.658;23.256;2024-03-23T07:38:48;93783.03;;;9.98;51.08
41690;BME280;27372;42.658;23.256;2024-03-23T07:41:18;93782.13;;;10.04;50.41
41690;BME280;27372;42.658;23.256;2024-03-23T07:43:44;93791.09;;;10.08;50.88
41690;BME280;27372;42.658;23.256;2024-03-23T07:46:10;93794.34;;;10.39;50.05
41690;BME280;27372;42.658;23.256;2024-03-23T07:48:35;93782.63;;;10.59;49.30
41690;BME280;27372;42.658;23.256;2024-03-23T07:51:04;93786.97;;;10.53;48.83
41690;BME280;27372;42.658;23.256;2024-03-23T07:53:31;93786.31;;;10.75;48.33
41690;BME280;27372;42.658;23.256;2024-03-23T07:55:58;93784.59;;;10.52;48.72
41690;BME280;27372;42.658;23.256;2024-03-23T07:58:25;93780.03;;;10.76;48.83
41690;BME280;27372;42.658;23.256;2024-03-23T08:00:50;93781.06;;;10.75;47.80
41690;BME280;27372;42.658;23.256;2024-03-23T08:03:16;93793.03;;;10.83;48.03
41690;BME280;27372;42.658;23.256;2024-03-23T08:05:41;93773.78;;;11.28;47.34
41690;BME280;27372;42.658;23.256;2024-03-23T08:08:07;93785.16;;;11.34;47.47
41690;BME280;27372;42.658;23.256;2024-03-23T08:10:32;93777.97;;;11.46;46.32
41690;BME280;27372;42.658;23.256;2024-03-23T08:12:57;93774.34;;;11.70;46.13
41690;BME280;27372;42.658;23.256;2024-03-23T08:15:23;93780.09;;;11.67;45.55
41690;BME280;27372;42.658;23.256;2024-03-23T08:17:49;93775.25;;;11.98;45.30
41690;BME280;27372;42.658;23.256;2024-03-23T08:20:15;93768.56;;;11.90;44.89
41690;BME280;27372;42.658;23.256;2024-03-23T08:22:40;93766.97;;;12.11;45.36
41690;BME280;27372;42.658;23.256;2024-03-23T08:25:06;93766.44;;;12.58;44.20
41690;BME280;27372;42.658;23.256;2024-03-23T08:27:31;93755.47;;;12.67;43.53
41690;BME280;27372;42.658;23.256;2024-03-23T08:29:58;93766.38;;;12.81;43.50
41690;BME280;27372;42.658;23.256;2024-03-23T08:32:23;93767.13;;;13.09;42.71
41690;BME280;27372;42.658;23.256;2024-03-23T08:34:48;93768.78;;;13.47;42.05
41690;BME280;27372;42.658;23.256;2024-03-23T08:37:14;93766.25;;;13.63;41.61
41690;BME280;27372;42.658;23.256;2024-03-23T08:39:39;93758.00;;;13.59;41.99
41690;BME280;27372;42.658;23.256;2024-03-23T08:42:05;93756.53;;;13.79;41.22
41690;BME280;27372;42.658;23.256;2024-03-23T08:44:30;93751.63;;;13.93;40.50
41690;BME280;27372;42.658;23.256;2024-03-23T08:46:56;93754.09;;;14.31;40.04
41690;BME280;27372;42.658;23.256;2024-03-23T08:49:21;93747.84;;;14.57;39.19
41690;BME280;27372;42.658;23.256;2024-03-23T08:51:47;93743.16;;;14.80;38.60
41690;BME280;27372;42.658;23.256;2024-03-23T08:54:12;93739.72;;;15.21;37.32
41690;BME280;27372;42.658;23.256;2024-03-23T08:56:37;93740.25;;;15.28;38.32
41690;BME280;27372;42.658;23.256;2024-03-23T08:59:03;93733.22;;;16.05;36.49
41690;BME280;27372;42.658;23.256;2024-03-23T09:01:28;93724.47;;;16.09;36.02
41690;BME280;27372;42.658;23.256;2024-03-23T09:03:53;93723.19;;;16.46;35.56
41690;BME280;27372;42.658;23.256;2024-03-23T09:06:19;93723.09;;;16.67;35.24
41690;BME280;27372;42.658;23.256;2024-03-23T09:08:45;93718.47;;;16.83;34.59
41690;BME280;27372;42.658;23.256;2024-03-23T09:11:12;93721.78;;;17.04;33.88
41690;BME280;27372;42.658;23.256;2024-03-23T09:13:38;93712.69;;;17.45;33.23
41690;BME280;27372;42.658;23.256;2024-03-23T09:16:05;93722.97;;;17.76;32.58
41690;BME280;27372;42.658;23.256;2024-03-23T09:18:35;93710.16;;;17.59;32.65
41690;BME280;27372;42.658;23.256;2024-03-23T09:21:02;93703.50;;;18.10;32.46
41690;BME280;27372;42.658;23.256;2024-03-23T09:23:27;93700.63;;;18.26;32.28
41690;BME280;27372;42.658;23.256;2024-03-23T09:25:53;93696.28;;;18.54;31.31
41690;BME280;27372;42.658;23.256;2024-03-23T09:28:18;93699.09;;;18.44;32.23
41690;BME280;27372;42.658;23.256;2024-03-23T09:31:04;93681.44;;;19.05;31.21
41690;BME280;27372;42.658;23.256;2024-03-23T09:33:35;93687.25;;;18.88;31.73
41690;BME280;27372;42.658;23.256;2024-03-23T09:36:04;93684.56;;;19.27;30.55
41690;BME280;27372;42.658;23.256;2024-03-23T09:38:30;93684.66;;;19.49;30.93
41690;BME280;27372;42.658;23.256;2024-03-23T09:40:56;93671.09;;;19.79;29.92
41690;BME280;27372;42.658;23.256;2024-03-23T09:43:22;93667.34;;;19.52;30.34
41690;BME280;27372;42.658;23.256;2024-03-23T09:45:48;93666.63;;;19.74;30.58
41690;BME280;27372;42.658;23.256;2024-03-23T09:48:14;93661.72;;;20.09;30.09
41690;BME280;27372;42.658;23.256;2024-03-23T09:50:43;93643.38;;;20.44;29.77
41690;BME280;27372;42.658;23.256;2024-03-23T09:53:09;93658.66;;;20.53;28.85
41690;BME280;27372;42.658;23.256;2024-03-23T09:55:35;93649.28;;;20.19;29.56
41690;BME280;27372;42.658;23.256;2024-03-23T09:58:01;93655.25;;;20.75;28.84
41690;BME280;27372;42.658;23.256;2024-03-23T10:00:27;93641.88;;;20.98;28.89
41690;BME280;27372;42.658;23.256;2024-03-23T10:02:55;93642.44;;;21.40;27.91
41690;BME280;27372;42.658;23.256;2024-03-23T10:05:24;93632.50;;;21.00;27.88
41690;BME280;27372;42.658;23.256;2024-03-23T10:07:52;93634.47;;;21.49;26.94
41690;BME280;27372;42.658;23.256;2024-03-23T10:10:18;93618.28;;;21.85;26.30
41690;BME280;27372;42.658;23.256;2024-03-23T10:12:47;93619.59;;;22.32;25.84
41690;BME280;27372;42.658;23.256;2024-03-23T10:15:21;93617.22;;;22.13;26.68
41690;BME280;27372;42.658;23.256;2024-03-23T10:17:47;93616.75;;;22.11;26.29
41690;BME280;27372;42.658;23.256;2024-03-23T10:20:12;93609.50;;;22.11;26.22
41690;BME280;27372;42.658;23.256;2024-03-23T10:22:38;93598.78;;;21.94;26.26
41690;BME280;27372;42.658;23.256;2024-03-23T10:25:13;93603.34;;;21.44;26.31
41690;BME280;27372;42.658;23.256;2024-03-23T10:27:39;93610.03;;;22.48;25.34
41690;BME280;27372;42.658;23.256;2024-03-23T10:30:12;93597.06;;;21.89;26.00
41690;BME280;27372;42.658;23.256;2024-03-23T10:32:38;93598.22;;;22.58;25.15
41690;BME280;27372;42.658;23.256;2024-03-23T10:35:19;93606.63;;;23.22;24.28
41690;BME280;27372;42.658;23.256;2024-03-23T10:37:47;93597.31;;;24.48;22.96
41690;BME280;27372;42.658;23.256;2024-03-23T10:40:16;93594.59;;;24.90;22.54
41690;BME280;27372;42.658;23.256;2024-03-23T10:42:44;93590.03;;;24.70;22.47
41690;BME280;27372;42.658;23.256;2024-03-23T10:45:10;93577.06;;;24.08;23.07
41690;BME280;27372;42.658;23.256;2024-03-23T10:47:36;93569.81;;;24.51;23.03
41690;BME280;27372;42.658;23.256;2024-03-23T10:50:05;93562.31;;;24.78;22.48
41690;BME280;27372;42.658;23.256;2024-03-23T10:52:32;93563.72;;;24.96;22.14
41690;BME280;27372;42.658;23.256;2024-03-23T10:54:58;93552.22;;;25.21;22.41
41690;BME280;27372;42.658;23.256;2024-03-23T10:57:31;93552.09;;;25.05;22.58
41690;BME280;27372;42.658;23.256;2024-03-23T11:00:02;93550.31;;;25.09;22.33
41690;BME280;27372;42.658;23.256;2024-03-23T11:02:28;93543.19;;;24.79;22.10
41690;BME280;27372;42.658;23.256;2024-03-23T11:04:55;93526.91;;;24.63;22.53
41690;BME280;27372;42.658;23.256;2024-03-23T11:09:48;93525.47;;;25.37;22.43
41690;BME280;27372;42.658;23.256;2024-03-23T11:15:05;93513.00;;;26.07;21.20
41690;BME280;27372;42.658;23.256;2024-03-23T11:17:31;93502.84;;;25.75;20.81
41690;BME280;27372;42.658;23.256;2024-03-23T11:25:17;93504.19;;;26.63;20.36
41690;BME280;27372;42.658;23.256;2024-03-23T11:27:46;93502.16;;;24.79;20.08
41690;BME280;27372;42.658;23.256;2024-03-23T11:30:12;93500.94;;;23.19;21.26
41690;BME280;27372;42.658;23.256;2024-03-23T11:32:38;93498.94;;;23.88;20.82
41690;BME280;27372;42.658;23.256;2024-03-23T11:35:03;93489.38;;;24.76;20.07
41690;BME280;27372;42.658;23.256;2024-03-23T11:37:29;93478.34;;;23.59;20.62
41690;BME280;27372;42.658;23.256;2024-03-23T11:39:54;93484.34;;;21.96;21.91
41690;BME280;27372;42.658;23.256;2024-03-23T11:42:19;93472.94;;;22.60;21.67
41690;BME280;27372;42.658;23.256;2024-03-23T11:44:47;93472.34;;;22.37;20.97
41690;BME280;27372;42.658;23.256;2024-03-23T11:47:12;93472.50;;;22.23;21.75
41690;BME280;27372;42.658;23.256;2024-03-23T11:49:42;93464.94;;;22.25;21.11
41690;BME280;27372;42.658;23.256;2024-03-23T11:52:16;93443.56;;;23.71;20.53
41690;BME280;27372;42.658;23.256;2024-03-23T11:54:41;93442.16;;;23.95;20.31
41690;BME280;27372;42.658;23.256;2024-03-23T11:57:08;93429.09;;;24.27;20.28
41690;BME280;27372;42.658;23.256;2024-03-23T11:59:38;93428.06;;;20.59;20.33
41690;BME280;27372;42.658;23.256;2024-03-23T12:02:12;93424.94;;;20.97;21.10
41690;BME280;27372;42.658;23.256;2024-03-23T12:04:44;93419.16;;;20.63;20.48
41690;BME280;27372;42.658;23.256;2024-03-23T12:07:13;93427.41;;;20.53;19.98
41690;BME280;27372;42.658;23.256;2024-03-23T12:09:40;93416.34;;;19.69;20.41
41690;BME280;27372;42.658;23.256;2024-03-23T12:12:16;93406.19;;;19.71;20.69
41690;BME280;27372;42.658;23.256;2024-03-23T12:14:45;93400.72;;;19.90;20.73
41690;BME280;27372;42.658;23.256;2024-03-23T12:17:14;93409.22;;;19.92;21.50
41690;BME280;27372;42.658;23.256;2024-03-23T12:19:43;93396.63;;;19.70;21.70
41690;BME280;27372;42.658;23.256;2024-03-23T12:22:11;93396.44;;;18.93;21.69
41690;BME280;27372;42.658;23.256;2024-03-23T12:24:37;93395.56;;;19.34;21.31
41690;BME280;27372;42.658;23.256;2024-03-23T12:27:04;93393.34;;;19.50;20.63
41690;BME280;27372;42.658;23.256;2024-03-23T12:29:34;93391.28;;;18.83;21.90
41690;BME280;27372;42.658;23.256;2024-03-23T12:32:00;93377.59;;;19.99;21.27
41690;BME280;27372;42.658;23.256;2024-03-23T12:34:26;93374.66;;;19.42;20.91
41690;BME280;27372;42.658;23.256;2024-03-23T12:36:53;93380.47;;;19.07;21.80
41690;BME280;27372;42.658;23.256;2024-03-23T12:39:19;93371.06;;;19.23;22.15
41690;BME280;27372;42.658;23.256;2024-03-23T12:45:04;93370.19;;;19.51;21.10
41690;BME280;27372;42.658;23.256;2024-03-23T12:47:41;93370.78;;;19.11;21.02
41690;BME280;27372;42.658;23.256;2024-03-23T12:50:07;93360.16;;;18.83;21.33
41690;BME280;27372;42.658;23.256;2024-03-23T12:52:36;93355.53;;;18.89;21.17
41690;BME280;27372;42.658;23.256;2024-03-23T12:55:02;93346.91;;;19.20;21.36
41690;BME280;27372;42.658;23.256;2024-03-23T12:57:29;93352.56;;;19.41;21.70
41690;BME280;27372;42.658;23.256;2024-03-23T13:00:06;93348.59;;;20.78;21.01
41690;BME280;27372;42.658;23.256;2024-03-23T13:02:42;93347.19;;;20.81;21.34
41690;BME280;27372;42.658;23.256;2024-03-23T13:05:08;93340.81;;;21.26;20.72
41690;BME280;27372;42.658;23.256;2024-03-23T13:07:35;93337.03;;;20.43;21.02
41690;BME280;27372;42.658;23.256;2024-03-23T13:10:00;93343.84;;;19.72;21.15
41690;BME280;27372;42.658;23.256;2024-03-23T13:12:26;93340.03;;;19.87;21.22
41690;BME280;27372;42.658;23.256;2024-03-23T13:14:51;93345.97;;;20.96;19.72
41690;BME280;27372;42.658;23.256;2024-03-23T13:23:53;93315.31;;;20.76;20.88
41690;BME280;27372;42.658;23.256;2024-03-23T13:26:22;93312.59;;;22.55;19.77
41690;BME280;27372;42.658;23.256;2024-03-23T13:28:47;93305.63;;;20.89;20.49
41690;BME280;27372;42.658;23.256;2024-03-23T13:31:13;93316.00;;;20.50;20.90
41690;BME280;27372;42.658;23.256;2024-03-23T13:33:38;93311.59;;;21.30;20.92
41690;BME280;27372;42.658;23.256;2024-03-23T13:36:04;93309.59;;;20.51;21.11
41690;BME280;27372;42.658;23.256;2024-03-23T13:38:29;93308.84;;;20.68;20.72
41690;BME280;27372;42.658;23.256;2024-03-23T13:40:56;93299.59;;;20.16;21.42
41690;BME280;27372;42.658;23.256;2024-03-23T13:43:22;93297.09;;;20.20;21.71
41690;BME280;27372;42.658;23.256;2024-03-23T13:45:49;93290.38;;;21.42;20.14
41690;BME280;27372;42.658;23.256;2024-03-23T13:48:23;93285.22;;;22.49;19.98
41690;BME280;27372;42.658;23.256;2024-03-23T13:51:22;93279.94;;;22.41;20.03
41690;BME280;27372;42.658;23.256;2024-03-23T13:54:17;93286.06;;;21.94;19.92
41690;BME280;27372;42.658;23.256;2024-03-23T13:57:12;93290.09;;;21.08;20.82
41690;BME280;27372;42.658;23.256;2024-03-23T13:59:52;93278.53;;;21.87;20.31
41690;BME280;27372;42.658;23.256;2024-03-23T14:02:18;93282.34;;;23.48;19.55
41690;BME280;27372;42.658;23.256;2024-03-23T14:04:43;93266.81;;;24.46;19.27
41690;BME280;27372;42.658;23.256;2024-03-23T14:07:09;93260.66;;;24.83;18.75